Detall de PIREP

Printer-friendly versionPDF version

[2011/12/08 20:20:00]
Flight IATA:CT3120
Pilot Number:026
Company ICAO:CAT
Aircraft Type:DC85/A
PAX:132
Departing Airport: LEPA
Destination Airport: LEVC
Alternate Airport:LEIB
Online: VATSIM
Route:TURIA A33 RIKOS
Flight Level:F170
No Slew and time accel
No pause
Crash detect
Detect pilot in Cockpit between each 30 and 45 minutes
20:20 Zero fuel Weight: 178471 Lbs, Fuel Weight: 21000 Lbs
20:20 VATSIM:LEPA 082000Z 00000KT 7000 FEW010 08/08 Q1027 NOSIG
20:20 VATSIM:LEVC 082000Z VRB02KT 9999 FEW020 10/10 Q1027 NOSIG
20:20 VOICE CATALONIAN / IATA CT3120
20:25 Parking Brakes off
20:34 Take-off
20:34 Take off Weight: 198318 Lbs
20:34 Wind: 303º @ 000 Knots Heading: 238º
20:34 POS N39º 33´ 13´´ E002º 43´ 28´´
20:34 Gear Up: 170 Knots
20:34 Flaps:2 at 170 Knots
20:35 Flaps:1 at 275 Knots
20:35 Flaps:0 at 276 Knots
20:42 TOC
20:42 Fuel Weight: 17232 Lb
20:48 TOD
20:48 Fuel Weight: 15828 Lb
20:49 Wind:346º@000 Knots Heading: 270º Ground Speed: 413 Knots Altitude 16748 ft
21:00 Flaps:1 at 198 Knots
21:01 Gear Down: 163 Knots
21:02 Flaps:2 at 153 Knots
21:03 Flaps:3 at 158 Knots
21:04 Wind:125º@001 Knots Heading: 296º Ground Speed: 155 Knots Altitude 961 ft
21:04 Flaps:4 at 148 Knots
21:05 TouchDown:Rate -234 ft/min Speed: 127 Knots
21:05 VATSIM:LEVC 082030Z VRB02KT 9999 FEW017 SCT030 10/10 Q1027 NOSIG
21:05 Land
21:05 Wind:126º@001 Knots
21:05 Heading: 296º
21:05 Flight Duration: 00:31
21:05 Landing Weight: 192710 Lbs
21:05 POS N39º 29´ 30´´ W000º 29´ 16´´
21:10 Parking brakes on
21:10 Block to Block Duration: 00:45
21:10 Final Fuel: 13811 Lbls
21:10 Spent Fuel: 7189 Lbls
21:10 Flight Length: 151 NM
21:10 TOD Land Length: 74 NM

Exportar CSV

Powered by Drupal - Modified by Danger4k